Hertford, United Kingdom
Current Conditions -  °F | °C
As of 9:50 AM on Friday 28 Nov 2014 (Local Time) from EGGW Reporting Station
Haze Haze  
Wind Chill: 50°   Ceiling: 400
Heat Index: 50°   Visibility: 2.1mi
Dew Point: 50°   Wind: 9mph
Humidity: 100%   Direction: 80°E
Pressure: 29.62"   Gusts: NA
Location:  51.8°N, 0.08°W
Report Text: EGGW 280950Z 08008KT 060V120 3500 BR BKN004 10/10 Q1003
Loading
Personal Weather Stations






























Interactive Weather Map New forecast layout! Learn more

10-Day Weather Forecast

Advertisements
Track Severe Weather on mobile